Emerald Coast — WDC9127 — position and weather

sailwx.info

Track history (hours):
 
Tides and Currents Weather Stations Pressure Air Temp Water Temp Dewpoint Dewpoint Depression Visibility Wind Speed Wind Dir Waves Ship Positions

Emerald Coast

Owner: Dann Marine Towing, LC, Chesapeake City, MD. More information available from US FCC via Universal Licensing System and Coast Guard Vessel Documentation Center.

Last reported at 2014-Oct-24 13:19 UTC. Time now 2014-Oct-25 04:19 UTC.
Position N 40°52' W 073°41'.

; draft 3 m.

Type: Towing. MMSI: 367097920.

Date/timePositionNaut miles runAvg speedWind from/ knotsBaromVisibWave heightAir tempDewpointWater temp
2014-Oct-24 13:19N 40°52' W 073°41'9 0.4
2014-Oct-23 13:32N 40°48' W 073°52'5 5.5
2014-Oct-23 12:33N 40°45' W 073°58'4 4.0
2014-Oct-23 11:33N 40°41' W 074°00'3 2.8
2014-Oct-23 10:33N 40°39' W 074°02'3 3.4
2014-Oct-23 09:33N 40°39' W 074°07'4 4.2
2014-Oct-23 08:33N 40°38' W 074°12'0 0.1
2014-Oct-23 07:33N 40°38' W 074°12'6 0.6
2014-Oct-22 22:33N 40°39' W 074°05'2 1.7
2014-Oct-22 21:33N 40°39' W 074°07'3 2.7
2014-Oct-22 20:33N 40°41' W 074°09'1 0.6
2014-Oct-22 19:33N 40°41' W 074°10'0 0.0
2014-Oct-22 18:33N 40°41' W 074°10'0 0.0
2014-Oct-22 17:33N 40°41' W 074°10'0 0.0
2014-Oct-22 16:33N 40°41' W 074°10'0 0.0
2014-Oct-22 15:33N 40°41' W 074°10'0 0.0
2014-Oct-22 14:33N 40°41' W 074°10'0 0.0
2014-Oct-22 13:33N 40°41' W 074°10'0 0.0
2014-Oct-22 12:33N 40°41' W 074°10'0 0.0
2014-Oct-22 11:33N 40°41' W 074°10'0 0.0
2014-Oct-22 10:33N 40°41' W 074°10'0 0.0
2014-Oct-22 09:33N 40°41' W 074°10'3 3.0
2014-Oct-22 08:33N 40°39' W 074°08'1 0.4
2014-Oct-22 07:11N 40°39' W 074°07'0 0.0
2014-Oct-22 06:33N 40°39' W 074°07'0 0.0
2014-Oct-22 05:10N 40°39' W 074°07'0 0.0
2014-Oct-22 03:06N 40°39' W 074°07'0 0.0
2014-Oct-22 02:33N 40°39' W 074°07'0 0.0
2014-Oct-22 01:33N 40°39' W 074°07'0 0.0
2014-Oct-22 00:33N 40°39' W 074°07'0 0.0
2014-Oct-21 23:33N 40°39' W 074°07'1 1.3
2014-Oct-21 22:33N 40°39' W 074°05'2 2.4
2014-Oct-21 21:33N 40°40' W 074°03'0 0.0
2014-Oct-21 20:33N 40°40' W 074°03'0 0.1
2014-Oct-21 19:33N 40°40' W 074°03'2 1.9
2014-Oct-21 18:33N 40°40' W 074°00'0 0.0
2014-Oct-21 17:33N 40°40' W 074°00'0 0.0
2014-Oct-21 16:33N 40°40' W 074°00'0 0.3
2014-Oct-21 15:33N 40°40' W 074°00'0 0.3
2014-Oct-21 14:33N 40°40' W 074°00'0 0.0
2014-Oct-21 13:33N 40°40' W 074°00'0 0.3
2014-Oct-21 12:33N 40°40' W 074°00'0 0.0
2014-Oct-21 11:33N 40°40' W 074°00'0 0.0
2014-Oct-21 10:33N 40°40' W 074°00'0 0.0
2014-Oct-21 09:33N 40°40' W 074°00'1 0.6
2014-Oct-21 08:33N 40°40' W 074°01'5 5.4
2014-Oct-21 07:33N 40°39' W 074°08'3 2.8
2014-Oct-21 06:31N 40°41' W 074°09'0 0.0
2014-Oct-21 05:23N 40°41' W 074°09'0 0.0
2014-Oct-21 04:33N 40°41' W 074°09'0 0.0
2014-Oct-21 02:31N 40°41' W 074°09'0 0.0
2014-Oct-21 01:29N 40°41' W 074°09'0 0.0
2014-Oct-21 00:30N 40°41' W 074°09'0 0.0
2014-Oct-20 22:32N 40°41' W 074°09'0 0.0
2014-Oct-20 20:04N 40°41' W 074°09'0 0.0
2014-Oct-20 19:29N 40°41' W 074°09'0 0.0
2014-Oct-20 18:26N 40°41' W 074°09'1 1.4
2014-Oct-20 17:33N 40°40' W 074°08'2 0.3
2014-Oct-20 10:30N 40°39' W 074°07'4 4.7
2014-Oct-20 09:33N 40°36' W 074°12'3 3.5
2014-Oct-20 08:33N 40°39' W 074°09'6 5.8
2014-Oct-20 07:33N 40°36' W 074°02'5 5.3
2014-Oct-20 06:33N 40°34' W 073°56'5 5.3
2014-Oct-20 05:32N 40°36' W 073°49'4 2.7
2014-Oct-20 04:06N 40°38' W 073°45'0 0.0
2014-Oct-19 21:30N 40°38' W 073°45'0 0.0
2014-Oct-18 19:24N 40°38' W 073°45'0 0.0
2014-Oct-18 15:30N 40°38' W 073°45'0 0.0
2014-Oct-18 14:13N 40°38' W 073°45'0 0.0
2014-Oct-18 13:31N 40°38' W 073°45'3 0.9
2014-Oct-18 10:24N 40°36' W 073°48'3 3.8
2014-Oct-18 09:33N 40°35' W 073°52'2 2.1
2014-Oct-18 08:32N 40°34' W 073°54'1 0.5
2014-Oct-18 07:28N 40°34' W 073°55'5 4.1
2014-Oct-18 06:22N 40°34' W 074°01'4 4.8
2014-Oct-18 05:33N 40°38' W 074°03'5 4.9
2014-Oct-18 04:33N 40°42' W 073°60'6 5.9
2014-Oct-18 03:31N 40°47' W 073°55'4 4.2
2014-Oct-18 02:32N 40°48' W 073°50'4 3.9
2014-Oct-18 01:32N 40°51' W 073°46'4 4.0
2014-Oct-18 00:33N 40°52' W 073°41'1 0.1
2014-Oct-17 10:17N 40°52' W 073°42'0 0.1
2014-Oct-17 09:33N 40°52' W 073°42'0 0.0
2014-Oct-17 08:33N 40°52' W 073°42'0 0.0
2014-Oct-17 07:33N 40°52' W 073°42'0 0.0
2014-Oct-17 06:30N 40°52' W 073°42'0 0.0
2014-Oct-17 05:33N 40°52' W 073°42'0 0.0
2014-Oct-17 04:33N 40°52' W 073°42'0 0.0
2014-Oct-17 03:27N 40°52' W 073°42'0 0.0
2014-Oct-17 02:12N 40°52' W 073°42'0 0.0
2014-Oct-17 01:32N 40°52' W 073°42'0 0.0
2014-Oct-17 00:33N 40°52' W 073°42'0 0.2
2014-Oct-16 23:33N 40°53' W 073°42'5 5.0
2014-Oct-16 22:31N 40°49' W 073°47'4 4.4
2014-Oct-16 21:30N 40°48' W 073°53'4 4.7
2014-Oct-16 20:33N 40°45' W 073°58'4 4.0
2014-Oct-16 19:33N 40°42' W 074°00'4 3.6
2014-Oct-16 18:33N 40°40' W 074°04'0 0.0
2014-Oct-16 17:33N 40°40' W 074°04'0 0.0
2014-Oct-16 16:33N 40°40' W 074°04'0 0.0
2014-Oct-16 15:33N 40°40' W 074°04'0 0.2
2014-Oct-16 14:33N 40°40' W 074°04'4 4.4
2014-Oct-16 13:33N 40°39' W 074°10'1 0.1
2014-Oct-16 06:27N 40°39' W 074°11'6 5.7
2014-Oct-16 05:28N 40°39' W 074°04'0 0.0
2014-Oct-16 04:33N 40°39' W 074°04'0 0.1
2014-Oct-16 03:33N 40°39' W 074°04'2 0.3
2014-Oct-15 21:21N 40°41' W 074°03'0 0.0
2014-Oct-15 19:31N 40°41' W 074°03'4 1.1
2014-Oct-15 16:16N 40°39' W 074°07'4 4.1
2014-Oct-15 15:18N 40°41' W 074°03'2 2.2
2014-Oct-15 14:33N 40°41' W 074°01'0 0.0
2014-Oct-15 13:20N 40°41' W 074°01'0 0.0
2014-Oct-15 12:30N 40°41' W 074°01'0 0.0
2014-Oct-15 11:11N 40°41' W 074°01'1 1.0
2014-Oct-15 10:30N 40°41' W 074°01'1 1.3
2014-Oct-15 09:33N 40°40' W 074°03'0 0.1
2014-Oct-15 08:33N 40°40' W 074°03'0 0.1
2014-Oct-15 07:34N 40°41' W 074°03'0 0.0
2014-Oct-15 06:33N 40°41' W 074°03'1 1.2
2014-Oct-15 05:30N 40°40' W 074°01'1 1.5
2014-Oct-15 04:33N 40°42' W 074°02'2 2.4
2014-Oct-15 03:33N 40°44' W 074°01'4 3.6
2014-Oct-15 02:33N 40°47' W 073°60'5 4.5
2014-Oct-15 01:25N 40°52' W 073°57'4 4.5
2014-Oct-15 00:33N 40°56' W 073°55'  
Track history (hours):
 
Tides and Currents Weather Stations Pressure Air Temp Water Temp Dewpoint Dewpoint Depression Visibility Wind Speed Wind Dir Waves Ship Positions

Emerald Coast

Owner: Dann Marine Towing, LC, Chesapeake City, MD. More information available from US FCC via Universal Licensing System and Coast Guard Vessel Documentation Center.

Last reported at 2014-Oct-24 13:19 UTC. Time now 2014-Oct-25 04:19 UTC.
Position N 40°52' W 073°41'.

; draft 3 m.

Type: Towing. MMSI: 367097920.

Date/timePositionNaut miles runAvg speedWind from/ knotsBaromVisibWave heightAir tempDewpointWater temp
2014-Oct-24 13:19N 40°52' W 073°41'9 0.4
2014-Oct-23 13:32N 40°48' W 073°52'5 5.5
2014-Oct-23 12:33N 40°45' W 073°58'4 4.0
2014-Oct-23 11:33N 40°41' W 074°00'3 2.8
2014-Oct-23 10:33N 40°39' W 074°02'3 3.4
2014-Oct-23 09:33N 40°39' W 074°07'4 4.2
2014-Oct-23 08:33N 40°38' W 074°12'0 0.1
2014-Oct-23 07:33N 40°38' W 074°12'6 0.6
2014-Oct-22 22:33N 40°39' W 074°05'2 1.7
2014-Oct-22 21:33N 40°39' W 074°07'3 2.7
2014-Oct-22 20:33N 40°41' W 074°09'1 0.6
2014-Oct-22 19:33N 40°41' W 074°10'0 0.0
2014-Oct-22 18:33N 40°41' W 074°10'0 0.0
2014-Oct-22 17:33N 40°41' W 074°10'0 0.0
2014-Oct-22 16:33N 40°41' W 074°10'0 0.0
2014-Oct-22 15:33N 40°41' W 074°10'0 0.0
2014-Oct-22 14:33N 40°41' W 074°10'0 0.0
2014-Oct-22 13:33N 40°41' W 074°10'0 0.0
2014-Oct-22 12:33N 40°41' W 074°10'0 0.0
2014-Oct-22 11:33N 40°41' W 074°10'0 0.0
2014-Oct-22 10:33N 40°41' W 074°10'0 0.0
2014-Oct-22 09:33N 40°41' W 074°10'3 3.0
2014-Oct-22 08:33N 40°39' W 074°08'1 0.4
2014-Oct-22 07:11N 40°39' W 074°07'0 0.0
2014-Oct-22 06:33N 40°39' W 074°07'0 0.0
2014-Oct-22 05:10N 40°39' W 074°07'0 0.0
2014-Oct-22 03:06N 40°39' W 074°07'0 0.0
2014-Oct-22 02:33N 40°39' W 074°07'0 0.0
2014-Oct-22 01:33N 40°39' W 074°07'0 0.0
2014-Oct-22 00:33N 40°39' W 074°07'0 0.0
2014-Oct-21 23:33N 40°39' W 074°07'1 1.3
2014-Oct-21 22:33N 40°39' W 074°05'2 2.4
2014-Oct-21 21:33N 40°40' W 074°03'0 0.0
2014-Oct-21 20:33N 40°40' W 074°03'0 0.1
2014-Oct-21 19:33N 40°40' W 074°03'2 1.9
2014-Oct-21 18:33N 40°40' W 074°00'0 0.0
2014-Oct-21 17:33N 40°40' W 074°00'0 0.0
2014-Oct-21 16:33N 40°40' W 074°00'0 0.3
2014-Oct-21 15:33N 40°40' W 074°00'0 0.3
2014-Oct-21 14:33N 40°40' W 074°00'0 0.0
2014-Oct-21 13:33N 40°40' W 074°00'0 0.3
2014-Oct-21 12:33N 40°40' W 074°00'0 0.0
2014-Oct-21 11:33N 40°40' W 074°00'0 0.0
2014-Oct-21 10:33N 40°40' W 074°00'0 0.0
2014-Oct-21 09:33N 40°40' W 074°00'1 0.6
2014-Oct-21 08:33N 40°40' W 074°01'5 5.4
2014-Oct-21 07:33N 40°39' W 074°08'3 2.8
2014-Oct-21 06:31N 40°41' W 074°09'0 0.0
2014-Oct-21 05:23N 40°41' W 074°09'0 0.0
2014-Oct-21 04:33N 40°41' W 074°09'0 0.0
2014-Oct-21 02:31N 40°41' W 074°09'0 0.0
2014-Oct-21 01:29N 40°41' W 074°09'0 0.0
2014-Oct-21 00:30N 40°41' W 074°09'0 0.0
2014-Oct-20 22:32N 40°41' W 074°09'0 0.0
2014-Oct-20 20:04N 40°41' W 074°09'0 0.0
2014-Oct-20 19:29N 40°41' W 074°09'0 0.0
2014-Oct-20 18:26N 40°41' W 074°09'1 1.4
2014-Oct-20 17:33N 40°40' W 074°08'2 0.3
2014-Oct-20 10:30N 40°39' W 074°07'4 4.7
2014-Oct-20 09:33N 40°36' W 074°12'3 3.5
2014-Oct-20 08:33N 40°39' W 074°09'6 5.8
2014-Oct-20 07:33N 40°36' W 074°02'5 5.3
2014-Oct-20 06:33N 40°34' W 073°56'5 5.3
2014-Oct-20 05:32N 40°36' W 073°49'4 2.7
2014-Oct-20 04:06N 40°38' W 073°45'0 0.0
2014-Oct-19 21:30N 40°38' W 073°45'0 0.0
2014-Oct-18 19:24N 40°38' W 073°45'0 0.0
2014-Oct-18 15:30N 40°38' W 073°45'0 0.0
2014-Oct-18 14:13N 40°38' W 073°45'0 0.0
2014-Oct-18 13:31N 40°38' W 073°45'3 0.9
2014-Oct-18 10:24N 40°36' W 073°48'3 3.8
2014-Oct-18 09:33N 40°35' W 073°52'2 2.1
2014-Oct-18 08:32N 40°34' W 073°54'1 0.5
2014-Oct-18 07:28N 40°34' W 073°55'5 4.1
2014-Oct-18 06:22N 40°34' W 074°01'4 4.8
2014-Oct-18 05:33N 40°38' W 074°03'5 4.9
2014-Oct-18 04:33N 40°42' W 073°60'6 5.9
2014-Oct-18 03:31N 40°47' W 073°55'4 4.2
2014-Oct-18 02:32N 40°48' W 073°50'4 3.9
2014-Oct-18 01:32N 40°51' W 073°46'4 4.0
2014-Oct-18 00:33N 40°52' W 073°41'1 0.1
2014-Oct-17 10:17N 40°52' W 073°42'0 0.1
2014-Oct-17 09:33N 40°52' W 073°42'0 0.0
2014-Oct-17 08:33N 40°52' W 073°42'0 0.0
2014-Oct-17 07:33N 40°52' W 073°42'0 0.0
2014-Oct-17 06:30N 40°52' W 073°42'0 0.0
2014-Oct-17 05:33N 40°52' W 073°42'0 0.0
2014-Oct-17 04:33N 40°52' W 073°42'0 0.0
2014-Oct-17 03:27N 40°52' W 073°42'0 0.0
2014-Oct-17 02:12N 40°52' W 073°42'0 0.0
2014-Oct-17 01:32N 40°52' W 073°42'0 0.0
2014-Oct-17 00:33N 40°52' W 073°42'0 0.2
2014-Oct-16 23:33N 40°53' W 073°42'5 5.0
2014-Oct-16 22:31N 40°49' W 073°47'4 4.4
2014-Oct-16 21:30N 40°48' W 073°53'4 4.7
2014-Oct-16 20:33N 40°45' W 073°58'4 4.0
2014-Oct-16 19:33N 40°42' W 074°00'4 3.6
2014-Oct-16 18:33N 40°40' W 074°04'0 0.0
2014-Oct-16 17:33N 40°40' W 074°04'0 0.0
2014-Oct-16 16:33N 40°40' W 074°04'0 0.0
2014-Oct-16 15:33N 40°40' W 074°04'0 0.2
2014-Oct-16 14:33N 40°40' W 074°04'4 4.4
2014-Oct-16 13:33N 40°39' W 074°10'1 0.1
2014-Oct-16 06:27N 40°39' W 074°11'6 5.7
2014-Oct-16 05:28N 40°39' W 074°04'0 0.0
2014-Oct-16 04:33N 40°39' W 074°04'0 0.1
2014-Oct-16 03:33N 40°39' W 074°04'2 0.3
2014-Oct-15 21:21N 40°41' W 074°03'0 0.0
2014-Oct-15 19:31N 40°41' W 074°03'4 1.1
2014-Oct-15 16:16N 40°39' W 074°07'4 4.1
2014-Oct-15 15:18N 40°41' W 074°03'2 2.2
2014-Oct-15 14:33N 40°41' W 074°01'0 0.0
2014-Oct-15 13:20N 40°41' W 074°01'0 0.0
2014-Oct-15 12:30N 40°41' W 074°01'0 0.0
2014-Oct-15 11:11N 40°41' W 074°01'1 1.0
2014-Oct-15 10:30N 40°41' W 074°01'1 1.3
2014-Oct-15 09:33N 40°40' W 074°03'0 0.1
2014-Oct-15 08:33N 40°40' W 074°03'0 0.1
2014-Oct-15 07:34N 40°41' W 074°03'0 0.0
2014-Oct-15 06:33N 40°41' W 074°03'1 1.2
2014-Oct-15 05:30N 40°40' W 074°01'1 1.5
2014-Oct-15 04:33N 40°42' W 074°02'2 2.4
2014-Oct-15 03:33N 40°44' W 074°01'4 3.6
2014-Oct-15 02:33N 40°47' W 073°60'5 4.5
2014-Oct-15 01:25N 40°52' W 073°57'4 4.5
2014-Oct-15 00:33N 40°56' W 073°55'  

Dump ship's entire track history